sensor_id;sensor_type;location;lat;lon;timestamp;P1;durP1;ratioP1;P2;durP2;ratioP2
8104;SDS011;4095;48.942;9.104;2024-01-15T00:01:26;29.30;;;15.00;;
8104;SDS011;4095;48.942;9.104;2024-01-15T00:03:51;29.03;;;15.70;;
8104;SDS011;4095;48.942;9.104;2024-01-15T00:06:17;28.43;;;14.63;;
8104;SDS011;4095;48.942;9.104;2024-01-15T00:08:42;28.03;;;14.37;;
8104;SDS011;4095;48.942;9.104;2024-01-15T00:11:08;28.90;;;14.63;;
8104;SDS011;4095;48.942;9.104;2024-01-15T00:13:33;27.63;;;14.73;;
8104;SDS011;4095;48.942;9.104;2024-01-15T00:15:59;27.73;;;13.67;;
8104;SDS011;4095;48.942;9.104;2024-01-15T00:18:25;29.77;;;15.47;;
8104;SDS011;4095;48.942;9.104;2024-01-15T00:20:50;28.03;;;14.73;;
8104;SDS011;4095;48.942;9.104;2024-01-15T00:23:16;29.57;;;14.97;;
8104;SDS011;4095;48.942;9.104;2024-01-15T00:25:41;27.03;;;14.47;;
8104;SDS011;4095;48.942;9.104;2024-01-15T00:28:07;30.23;;;15.47;;
8104;SDS011;4095;48.942;9.104;2024-01-15T00:30:32;30.97;;;14.23;;
8104;SDS011;4095;48.942;9.104;2024-01-15T00:32:58;31.37;;;14.97;;
8104;SDS011;4095;48.942;9.104;2024-01-15T00:35:23;28.23;;;15.13;;
8104;SDS011;4095;48.942;9.104;2024-01-15T00:37:49;30.10;;;15.13;;
8104;SDS011;4095;48.942;9.104;2024-01-15T00:40:14;28.50;;;15.07;;
8104;SDS011;4095;48.942;9.104;2024-01-15T00:42:40;30.30;;;15.77;;
8104;SDS011;4095;48.942;9.104;2024-01-15T00:45:05;29.70;;;15.00;;
8104;SDS011;4095;48.942;9.104;2024-01-15T00:47:32;31.37;;;15.80;;
8104;SDS011;4095;48.942;9.104;2024-01-15T00:49:58;31.33;;;15.30;;
8104;SDS011;4095;48.942;9.104;2024-01-15T00:52:24;28.70;;;15.10;;
8104;SDS011;4095;48.942;9.104;2024-01-15T00:54:49;29.87;;;15.03;;
8104;SDS011;4095;48.942;9.104;2024-01-15T00:57:15;27.53;;;15.07;;
8104;SDS011;4095;48.942;9.104;2024-01-15T00:59:41;29.97;;;15.07;;
8104;SDS011;4095;48.942;9.104;2024-01-15T01:02:06;28.00;;;14.70;;
8104;SDS011;4095;48.942;9.104;2024-01-15T01:04:32;30.93;;;15.10;;
8104;SDS011;4095;48.942;9.104;2024-01-15T01:06:57;28.73;;;15.10;;
8104;SDS011;4095;48.942;9.104;2024-01-15T01:09:23;26.93;;;14.67;;
8104;SDS011;4095;48.942;9.104;2024-01-15T01:11:49;30.67;;;16.10;;
8104;SDS011;4095;48.942;9.104;2024-01-15T01:14:15;32.00;;;15.50;;
8104;SDS011;4095;48.942;9.104;2024-01-15T01:16:40;30.40;;;15.67;;
8104;SDS011;4095;48.942;9.104;2024-01-15T01:19:06;29.07;;;15.30;;
8104;SDS011;4095;48.942;9.104;2024-01-15T01:21:32;26.93;;;14.07;;
8104;SDS011;4095;48.942;9.104;2024-01-15T01:23:58;29.43;;;15.03;;
8104;SDS011;4095;48.942;9.104;2024-01-15T01:26:24;31.97;;;16.03;;
8104;SDS011;4095;48.942;9.104;2024-01-15T01:28:49;31.00;;;15.80;;
8104;SDS011;4095;48.942;9.104;2024-01-15T01:31:15;30.40;;;15.77;;
8104;SDS011;4095;48.942;9.104;2024-01-15T01:33:41;31.73;;;16.33;;
8104;SDS011;4095;48.942;9.104;2024-01-15T01:36:08;28.67;;;15.73;;
8104;SDS011;4095;48.942;9.104;2024-01-15T01:38:34;30.70;;;16.13;;
8104;SDS011;4095;48.942;9.104;2024-01-15T01:41:00;30.17;;;16.00;;
8104;SDS011;4095;48.942;9.104;2024-01-15T01:43:26;30.03;;;14.50;;
8104;SDS011;4095;48.942;9.104;2024-01-15T01:45:51;28.50;;;15.10;;
8104;SDS011;4095;48.942;9.104;2024-01-15T01:48:17;27.93;;;15.03;;
8104;SDS011;4095;48.942;9.104;2024-01-15T01:50:43;24.90;;;13.63;;
8104;SDS011;4095;48.942;9.104;2024-01-15T01:53:09;27.27;;;14.70;;
8104;SDS011;4095;48.942;9.104;2024-01-15T01:55:35;29.37;;;15.17;;
8104;SDS011;4095;48.942;9.104;2024-01-15T01:58:02;28.10;;;15.03;;
8104;SDS011;4095;48.942;9.104;2024-01-15T02:00:28;26.97;;;14.63;;
8104;SDS011;4095;48.942;9.104;2024-01-15T02:02:55;29.67;;;14.80;;
8104;SDS011;4095;48.942;9.104;2024-01-15T02:05:21;28.80;;;15.20;;
8104;SDS011;4095;48.942;9.104;2024-01-15T02:07:47;28.67;;;14.90;;
8104;SDS011;4095;48.942;9.104;2024-01-15T02:10:13;29.63;;;14.63;;
8104;SDS011;4095;48.942;9.104;2024-01-15T02:12:39;29.17;;;15.20;;
8104;SDS011;4095;48.942;9.104;2024-01-15T02:15:05;25.53;;;13.77;;
8104;SDS011;4095;48.942;9.104;2024-01-15T02:17:31;26.50;;;14.40;;
8104;SDS011;4095;48.942;9.104;2024-01-15T02:19:56;25.63;;;13.97;;
8104;SDS011;4095;48.942;9.104;2024-01-15T02:22:22;25.80;;;13.73;;
8104;SDS011;4095;48.942;9.104;2024-01-15T02:24:47;24.87;;;13.43;;
8104;SDS011;4095;48.942;9.104;2024-01-15T02:27:13;25.60;;;13.17;;
8104;SDS011;4095;48.942;9.104;2024-01-15T02:29:39;27.80;;;12.90;;
8104;SDS011;4095;48.942;9.104;2024-01-15T02:32:05;27.73;;;13.90;;
8104;SDS011;4095;48.942;9.104;2024-01-15T02:34:34;23.03;;;12.53;;
8104;SDS011;4095;48.942;9.104;2024-01-15T02:37:00;23.73;;;12.90;;
8104;SDS011;4095;48.942;9.104;2024-01-15T02:39:25;24.47;;;12.23;;
8104;SDS011;4095;48.942;9.104;2024-01-15T02:41:51;22.00;;;11.80;;
8104;SDS011;4095;48.942;9.104;2024-01-15T02:44:16;25.20;;;13.30;;
8104;SDS011;4095;48.942;9.104;2024-01-15T02:46:42;25.13;;;12.83;;
8104;SDS011;4095;48.942;9.104;2024-01-15T02:49:07;22.37;;;12.17;;
8104;SDS011;4095;48.942;9.104;2024-01-15T02:51:33;23.10;;;12.57;;
8104;SDS011;4095;48.942;9.104;2024-01-15T02:53:59;21.97;;;12.30;;
8104;SDS011;4095;48.942;9.104;2024-01-15T02:56:24;24.37;;;13.00;;
8104;SDS011;4095;48.942;9.104;2024-01-15T02:58:50;23.83;;;12.63;;
8104;SDS011;4095;48.942;9.104;2024-01-15T03:01:18;22.37;;;13.13;;
8104;SDS011;4095;48.942;9.104;2024-01-15T03:03:44;25.30;;;13.33;;
8104;SDS011;4095;48.942;9.104;2024-01-15T03:06:09;24.93;;;13.10;;
8104;SDS011;4095;48.942;9.104;2024-01-15T03:08:35;24.40;;;12.53;;
8104;SDS011;4095;48.942;9.104;2024-01-15T03:11:01;26.33;;;13.27;;
8104;SDS011;4095;48.942;9.104;2024-01-15T03:13:26;24.13;;;12.97;;
8104;SDS011;4095;48.942;9.104;2024-01-15T03:15:52;25.70;;;13.27;;
8104;SDS011;4095;48.942;9.104;2024-01-15T03:18:17;23.77;;;13.10;;
8104;SDS011;4095;48.942;9.104;2024-01-15T03:20:43;27.23;;;12.83;;
8104;SDS011;4095;48.942;9.104;2024-01-15T03:23:08;22.03;;;12.60;;
8104;SDS011;4095;48.942;9.104;2024-01-15T03:25:34;24.73;;;12.03;;
8104;SDS011;4095;48.942;9.104;2024-01-15T03:27:59;23.40;;;12.07;;
8104;SDS011;4095;48.942;9.104;2024-01-15T03:30:25;24.23;;;13.03;;
8104;SDS011;4095;48.942;9.104;2024-01-15T03:32:50;23.30;;;12.73;;
8104;SDS011;4095;48.942;9.104;2024-01-15T03:35:16;23.97;;;12.57;;
8104;SDS011;4095;48.942;9.104;2024-01-15T03:37:41;21.90;;;12.03;;
8104;SDS011;4095;48.942;9.104;2024-01-15T03:40:07;21.17;;;11.77;;
8104;SDS011;4095;48.942;9.104;2024-01-15T03:42:33;23.37;;;11.67;;
8104;SDS011;4095;48.942;9.104;2024-01-15T03:44:59;19.90;;;11.30;;
8104;SDS011;4095;48.942;9.104;2024-01-15T03:47:24;17.53;;;11.33;;
8104;SDS011;4095;48.942;9.104;2024-01-15T03:49:51;21.03;;;12.73;;
8104;SDS011;4095;48.942;9.104;2024-01-15T03:52:16;22.07;;;12.00;;
8104;SDS011;4095;48.942;9.104;2024-01-15T03:54:42;23.17;;;12.43;;
8104;SDS011;4095;48.942;9.104;2024-01-15T03:57:07;20.53;;;11.17;;
8104;SDS011;4095;48.942;9.104;2024-01-15T03:59:33;21.20;;;11.90;;
8104;SDS011;4095;48.942;9.104;2024-01-15T04:01:58;20.30;;;11.37;;
8104;SDS011;4095;48.942;9.104;2024-01-15T04:04:24;22.33;;;12.30;;
8104;SDS011;4095;48.942;9.104;2024-01-15T04:06:49;19.40;;;11.13;;
8104;SDS011;4095;48.942;9.104;2024-01-15T04:09:15;19.87;;;11.47;;
8104;SDS011;4095;48.942;9.104;2024-01-15T04:11:40;20.63;;;10.83;;
8104;SDS011;4095;48.942;9.104;2024-01-15T04:14:06;19.77;;;11.20;;
8104;SDS011;4095;48.942;9.104;2024-01-15T04:16:32;20.43;;;11.97;;
8104;SDS011;4095;48.942;9.104;2024-01-15T04:18:57;17.87;;;10.93;;
8104;SDS011;4095;48.942;9.104;2024-01-15T04:21:23;19.00;;;11.03;;
8104;SDS011;4095;48.942;9.104;2024-01-15T04:23:48;17.03;;;10.83;;
8104;SDS011;4095;48.942;9.104;2024-01-15T04:26:14;20.17;;;11.70;;
8104;SDS011;4095;48.942;9.104;2024-01-15T04:28:39;18.10;;;10.80;;
8104;SDS011;4095;48.942;9.104;2024-01-15T04:31:05;18.97;;;10.23;;
8104;SDS011;4095;48.942;9.104;2024-01-15T04:33:31;18.80;;;10.83;;
8104;SDS011;4095;48.942;9.104;2024-01-15T04:35:56;15.83;;;9.93;;
8104;SDS011;4095;48.942;9.104;2024-01-15T04:38:26;17.53;;;9.87;;
8104;SDS011;4095;48.942;9.104;2024-01-15T04:40:51;16.30;;;9.97;;
8104;SDS011;4095;48.942;9.104;2024-01-15T04:43:17;18.07;;;10.67;;
8104;SDS011;4095;48.942;9.104;2024-01-15T04:45:42;18.83;;;11.43;;
8104;SDS011;4095;48.942;9.104;2024-01-15T04:48:08;19.23;;;12.03;;
8104;SDS011;4095;48.942;9.104;2024-01-15T04:50:33;18.77;;;11.50;;
8104;SDS011;4095;48.942;9.104;2024-01-15T04:52:59;18.20;;;10.93;;
8104;SDS011;4095;48.942;9.104;2024-01-15T04:55:24;20.13;;;11.93;;
8104;SDS011;4095;48.942;9.104;2024-01-15T04:57:50;20.37;;;11.43;;
8104;SDS011;4095;48.942;9.104;2024-01-15T05:00:15;17.73;;;10.83;;
8104;SDS011;4095;48.942;9.104;2024-01-15T05:02:41;15.13;;;10.37;;
8104;SDS011;4095;48.942;9.104;2024-01-15T05:05:07;15.43;;;10.40;;
8104;SDS011;4095;48.942;9.104;2024-01-15T05:07:32;17.47;;;10.53;;
8104;SDS011;4095;48.942;9.104;2024-01-15T05:09:58;16.43;;;10.30;;
8104;SDS011;4095;48.942;9.104;2024-01-15T05:12:23;17.50;;;10.40;;
8104;SDS011;4095;48.942;9.104;2024-01-15T05:14:49;17.77;;;10.10;;
8104;SDS011;4095;48.942;9.104;2024-01-15T05:17:14;18.87;;;11.10;;
8104;SDS011;4095;48.942;9.104;2024-01-15T05:19:40;15.73;;;10.70;;
8104;SDS011;4095;48.942;9.104;2024-01-15T05:22:05;16.80;;;9.87;;
8104;SDS011;4095;48.942;9.104;2024-01-15T05:24:31;17.93;;;10.73;;
8104;SDS011;4095;48.942;9.104;2024-01-15T05:26:56;19.27;;;11.33;;
8104;SDS011;4095;48.942;9.104;2024-01-15T05:29:22;16.53;;;10.13;;
8104;SDS011;4095;48.942;9.104;2024-01-15T05:31:48;16.40;;;10.20;;
8104;SDS011;4095;48.942;9.104;2024-01-15T05:34:13;17.10;;;10.13;;
8104;SDS011;4095;48.942;9.104;2024-01-15T05:36:39;15.77;;;9.43;;
8104;SDS011;4095;48.942;9.104;2024-01-15T05:39:04;14.70;;;8.83;;
8104;SDS011;4095;48.942;9.104;2024-01-15T05:41:30;17.00;;;9.33;;
8104;SDS011;4095;48.942;9.104;2024-01-15T05:43:55;16.93;;;9.80;;
8104;SDS011;4095;48.942;9.104;2024-01-15T05:46:21;15.43;;;9.60;;
8104;SDS011;4095;48.942;9.104;2024-01-15T05:48:46;15.27;;;9.50;;
8104;SDS011;4095;48.942;9.104;2024-01-15T05:51:12;15.87;;;9.70;;
8104;SDS011;4095;48.942;9.104;2024-01-15T05:53:38;15.50;;;9.10;;
8104;SDS011;4095;48.942;9.104;2024-01-15T05:56:05;13.97;;;8.90;;
8104;SDS011;4095;48.942;9.104;2024-01-15T05:58:31;15.53;;;9.00;;
8104;SDS011;4095;48.942;9.104;2024-01-15T06:00:56;12.87;;;7.87;;
8104;SDS011;4095;48.942;9.104;2024-01-15T06:03:22;15.07;;;8.37;;
8104;SDS011;4095;48.942;9.104;2024-01-15T06:05:47;12.33;;;8.67;;
8104;SDS011;4095;48.942;9.104;2024-01-15T06:08:13;13.57;;;7.83;;
8104;SDS011;4095;48.942;9.104;2024-01-15T06:10:39;11.10;;;7.90;;
8104;SDS011;4095;48.942;9.104;2024-01-15T06:13:05;11.97;;;8.00;;
8104;SDS011;4095;48.942;9.104;2024-01-15T06:15:30;11.60;;;7.40;;
8104;SDS011;4095;48.942;9.104;2024-01-15T06:17:56;10.77;;;7.23;;
8104;SDS011;4095;48.942;9.104;2024-01-15T06:20:21;11.77;;;7.50;;
8104;SDS011;4095;48.942;9.104;2024-01-15T06:22:47;10.80;;;6.77;;
8104;SDS011;4095;48.942;9.104;2024-01-15T06:25:12;11.30;;;7.17;;
8104;SDS011;4095;48.942;9.104;2024-01-15T06:27:38;10.37;;;7.07;;
8104;SDS011;4095;48.942;9.104;2024-01-15T06:30:04;13.67;;;8.30;;
8104;SDS011;4095;48.942;9.104;2024-01-15T06:32:30;11.97;;;7.20;;
8104;SDS011;4095;48.942;9.104;2024-01-15T06:34:55;11.23;;;8.03;;
8104;SDS011;4095;48.942;9.104;2024-01-15T06:37:21;13.20;;;8.07;;
8104;SDS011;4095;48.942;9.104;2024-01-15T06:39:47;12.73;;;8.10;;
8104;SDS011;4095;48.942;9.104;2024-01-15T06:42:12;15.80;;;9.03;;
8104;SDS011;4095;48.942;9.104;2024-01-15T06:44:38;13.83;;;8.63;;
8104;SDS011;4095;48.942;9.104;2024-01-15T06:47:03;13.37;;;8.70;;
8104;SDS011;4095;48.942;9.104;2024-01-15T06:49:30;12.90;;;8.27;;
8104;SDS011;4095;48.942;9.104;2024-01-15T06:51:56;13.20;;;8.03;;
8104;SDS011;4095;48.942;9.104;2024-01-15T06:54:21;12.67;;;7.90;;
8104;SDS011;4095;48.942;9.104;2024-01-15T06:56:48;13.37;;;7.93;;
8104;SDS011;4095;48.942;9.104;2024-01-15T06:59:14;13.33;;;7.77;;
8104;SDS011;4095;48.942;9.104;2024-01-15T07:01:39;12.70;;;8.00;;
8104;SDS011;4095;48.942;9.104;2024-01-15T07:04:05;12.63;;;8.17;;
8104;SDS011;4095;48.942;9.104;2024-01-15T07:06:31;13.23;;;7.80;;
8104;SDS011;4095;48.942;9.104;2024-01-15T07:08:56;13.33;;;7.97;;
8104;SDS011;4095;48.942;9.104;2024-01-15T07:11:22;11.97;;;7.43;;
8104;SDS011;4095;48.942;9.104;2024-01-15T07:13:48;11.17;;;7.17;;
8104;SDS011;4095;48.942;9.104;2024-01-15T07:16:14;10.73;;;7.73;;
8104;SDS011;4095;48.942;9.104;2024-01-15T07:18:40;11.67;;;7.87;;
8104;SDS011;4095;48.942;9.104;2024-01-15T07:21:06;10.50;;;7.23;;
8104;SDS011;4095;48.942;9.104;2024-01-15T07:23:31;10.77;;;7.57;;
8104;SDS011;4095;48.942;9.104;2024-01-15T07:25:57;13.20;;;7.33;;
8104;SDS011;4095;48.942;9.104;2024-01-15T07:28:23;9.57;;;7.20;;
8104;SDS011;4095;48.942;9.104;2024-01-15T07:30:48;11.13;;;6.60;;
8104;SDS011;4095;48.942;9.104;2024-01-15T07:33:14;8.77;;;6.23;;
8104;SDS011;4095;48.942;9.104;2024-01-15T07:35:39;10.60;;;6.80;;
8104;SDS011;4095;48.942;9.104;2024-01-15T07:38:05;10.20;;;6.80;;
8104;SDS011;4095;48.942;9.104;2024-01-15T07:40:30;12.00;;;7.17;;
8104;SDS011;4095;48.942;9.104;2024-01-15T07:42:56;11.17;;;7.00;;
8104;SDS011;4095;48.942;9.104;2024-01-15T07:45:21;11.47;;;7.23;;
8104;SDS011;4095;48.942;9.104;2024-01-15T07:47:47;10.77;;;6.83;;
8104;SDS011;4095;48.942;9.104;2024-01-15T07:50:13;12.37;;;7.43;;
8104;SDS011;4095;48.942;9.104;2024-01-15T07:52:39;12.70;;;7.77;;
8104;SDS011;4095;48.942;9.104;2024-01-15T07:55:06;11.47;;;7.30;;
8104;SDS011;4095;48.942;9.104;2024-01-15T07:57:32;16.80;;;10.60;;
8104;SDS011;4095;48.942;9.104;2024-01-15T07:59:58;16.23;;;11.40;;
8104;SDS011;4095;48.942;9.104;2024-01-15T08:02:24;18.63;;;11.63;;
8104;SDS011;4095;48.942;9.104;2024-01-15T08:04:49;24.30;;;13.93;;
8104;SDS011;4095;48.942;9.104;2024-01-15T08:07:15;21.00;;;12.93;;
8104;SDS011;4095;48.942;9.104;2024-01-15T08:09:41;18.70;;;12.13;;
8104;SDS011;4095;48.942;9.104;2024-01-15T08:12:07;18.80;;;11.40;;
8104;SDS011;4095;48.942;9.104;2024-01-15T08:14:32;17.83;;;11.23;;
8104;SDS011;4095;48.942;9.104;2024-01-15T08:16:58;17.20;;;11.50;;
8104;SDS011;4095;48.942;9.104;2024-01-15T08:19:24;16.30;;;11.73;;
8104;SDS011;4095;48.942;9.104;2024-01-15T08:21:49;16.47;;;10.83;;
8104;SDS011;4095;48.942;9.104;2024-01-15T08:24:15;14.47;;;9.63;;
8104;SDS011;4095;48.942;9.104;2024-01-15T08:26:41;13.33;;;9.30;;
8104;SDS011;4095;48.942;9.104;2024-01-15T08:29:07;16.10;;;9.90;;
8104;SDS011;4095;48.942;9.104;2024-01-15T08:31:33;14.53;;;8.73;;
8104;SDS011;4095;48.942;9.104;2024-01-15T08:33:58;13.50;;;8.70;;
8104;SDS011;4095;48.942;9.104;2024-01-15T08:36:24;12.47;;;8.23;;
8104;SDS011;4095;48.942;9.104;2024-01-15T08:38:50;12.40;;;8.87;;
8104;SDS011;4095;48.942;9.104;2024-01-15T08:41:16;17.77;;;12.57;;
8104;SDS011;4095;48.942;9.104;2024-01-15T08:43:41;15.97;;;10.10;;
8104;SDS011;4095;48.942;9.104;2024-01-15T08:46:07;14.70;;;8.37;;
8104;SDS011;4095;48.942;9.104;2024-01-15T08:48:33;14.63;;;9.00;;
8104;SDS011;4095;48.942;9.104;2024-01-15T08:50:59;25.83;;;17.07;;
8104;SDS011;4095;48.942;9.104;2024-01-15T08:53:24;15.43;;;10.13;;
8104;SDS011;4095;48.942;9.104;2024-01-15T08:55:50;12.13;;;7.87;;
8104;SDS011;4095;48.942;9.104;2024-01-15T08:58:16;15.40;;;8.90;;
8104;SDS011;4095;48.942;9.104;2024-01-15T09:00:42;12.50;;;8.03;;
8104;SDS011;4095;48.942;9.104;2024-01-15T09:03:08;13.37;;;8.73;;
8104;SDS011;4095;48.942;9.104;2024-01-15T09:05:33;11.30;;;7.33;;
8104;SDS011;4095;48.942;9.104;2024-01-15T09:07:59;14.90;;;7.67;;
8104;SDS011;4095;48.942;9.104;2024-01-15T09:10:25;11.27;;;7.03;;
8104;SDS011;4095;48.942;9.104;2024-01-15T09:12:50;12.03;;;6.43;;
8104;SDS011;4095;48.942;9.104;2024-01-15T09:15:16;11.17;;;7.00;;
8104;SDS011;4095;48.942;9.104;2024-01-15T09:17:42;11.47;;;7.13;;
8104;SDS011;4095;48.942;9.104;2024-01-15T09:20:08;13.67;;;7.57;;
8104;SDS011;4095;48.942;9.104;2024-01-15T09:22:37;12.00;;;7.77;;
8104;SDS011;4095;48.942;9.104;2024-01-15T09:25:05;12.47;;;7.73;;
8104;SDS011;4095;48.942;9.104;2024-01-15T09:27:31;12.03;;;8.03;;
8104;SDS011;4095;48.942;9.104;2024-01-15T09:29:57;12.63;;;7.97;;
8104;SDS011;4095;48.942;9.104;2024-01-15T09:32:23;9.63;;;6.63;;
8104;SDS011;4095;48.942;9.104;2024-01-15T09:34:48;9.60;;;6.33;;
8104;SDS011;4095;48.942;9.104;2024-01-15T09:37:14;12.03;;;6.20;;
8104;SDS011;4095;48.942;9.104;2024-01-15T09:39:40;7.77;;;6.00;;
8104;SDS011;4095;48.942;9.104;2024-01-15T09:42:05;11.00;;;5.10;;
8104;SDS011;4095;48.942;9.104;2024-01-15T09:44:32;8.23;;;5.20;;
8104;SDS011;4095;48.942;9.104;2024-01-15T09:46:58;7.57;;;4.67;;
8104;SDS011;4095;48.942;9.104;2024-01-15T09:49:24;8.33;;;5.37;;
8104;SDS011;4095;48.942;9.104;2024-01-15T09:51:50;7.87;;;5.50;;
8104;SDS011;4095;48.942;9.104;2024-01-15T09:54:16;9.17;;;5.17;;
8104;SDS011;4095;48.942;9.104;2024-01-15T09:56:44;8.87;;;5.00;;
8104;SDS011;4095;48.942;9.104;2024-01-15T09:59:16;9.93;;;5.47;;
8104;SDS011;4095;48.942;9.104;2024-01-15T10:01:43;7.90;;;5.43;;
8104;SDS011;4095;48.942;9.104;2024-01-15T10:04:13;8.60;;;5.23;;
8104;SDS011;4095;48.942;9.104;2024-01-15T10:06:39;9.13;;;4.97;;
8104;SDS011;4095;48.942;9.104;2024-01-15T10:09:10;9.03;;;4.93;;
8104;SDS011;4095;48.942;9.104;2024-01-15T10:11:43;8.07;;;4.33;;
8104;SDS011;4095;48.942;9.104;2024-01-15T10:14:12;9.07;;;4.87;;
8104;SDS011;4095;48.942;9.104;2024-01-15T10:16:39;10.23;;;5.03;;
8104;SDS011;4095;48.942;9.104;2024-01-15T10:19:05;7.13;;;4.53;;
8104;SDS011;4095;48.942;9.104;2024-01-15T10:21:34;6.63;;;4.30;;
8104;SDS011;4095;48.942;9.104;2024-01-15T10:24:00;7.63;;;4.37;;
8104;SDS011;4095;48.942;9.104;2024-01-15T10:26:26;6.27;;;3.90;;
8104;SDS011;4095;48.942;9.104;2024-01-15T10:28:52;6.13;;;4.10;;
8104;SDS011;4095;48.942;9.104;2024-01-15T10:31:17;7.43;;;3.73;;
8104;SDS011;4095;48.942;9.104;2024-01-15T10:33:44;7.53;;;4.13;;
8104;SDS011;4095;48.942;9.104;2024-01-15T10:36:10;6.47;;;3.70;;
8104;SDS011;4095;48.942;9.104;2024-01-15T10:38:38;5.53;;;3.53;;
8104;SDS011;4095;48.942;9.104;2024-01-15T10:41:04;6.47;;;3.63;;
8104;SDS011;4095;48.942;9.104;2024-01-15T10:43:29;7.70;;;3.67;;
8104;SDS011;4095;48.942;9.104;2024-01-15T10:45:55;4.93;;;3.40;;
8104;SDS011;4095;48.942;9.104;2024-01-15T10:48:21;4.93;;;3.47;;
8104;SDS011;4095;48.942;9.104;2024-01-15T10:50:47;5.63;;;3.90;;
8104;SDS011;4095;48.942;9.104;2024-01-15T10:53:14;7.43;;;4.67;;
8104;SDS011;4095;48.942;9.104;2024-01-15T10:55:41;6.03;;;4.30;;
8104;SDS011;4095;48.942;9.104;2024-01-15T10:58:07;6.47;;;3.93;;
8104;SDS011;4095;48.942;9.104;2024-01-15T11:00:34;5.20;;;3.83;;
8104;SDS011;4095;48.942;9.104;2024-01-15T11:03:02;7.60;;;4.90;;
8104;SDS011;4095;48.942;9.104;2024-01-15T11:05:33;4.90;;;3.70;;
8104;SDS011;4095;48.942;9.104;2024-01-15T11:07:59;8.47;;;4.57;;
8104;SDS011;4095;48.942;9.104;2024-01-15T11:10:39;5.60;;;4.73;;
8104;SDS011;4095;48.942;9.104;2024-01-15T11:13:21;7.37;;;4.67;;
8104;SDS011;4095;48.942;9.104;2024-01-15T11:16:07;7.97;;;4.50;;
8104;SDS011;4095;48.942;9.104;2024-01-15T11:18:36;6.97;;;4.50;;
8104;SDS011;4095;48.942;9.104;2024-01-15T11:23:44;6.23;;;4.80;;
8104;SDS011;4095;48.942;9.104;2024-01-15T11:29:10;7.80;;;5.10;;
8104;SDS011;4095;48.942;9.104;2024-01-15T11:34:20;9.53;;;6.00;;
8104;SDS011;4095;48.942;9.104;2024-01-15T11:41:56;7.47;;;5.10;;
8104;SDS011;4095;48.942;9.104;2024-01-15T11:44:23;8.30;;;5.57;;
8104;SDS011;4095;48.942;9.104;2024-01-15T11:47:07;9.00;;;5.43;;
8104;SDS011;4095;48.942;9.104;2024-01-15T11:52:09;9.03;;;5.77;;
8104;SDS011;4095;48.942;9.104;2024-01-15T11:54:37;8.23;;;6.10;;
8104;SDS011;4095;48.942;9.104;2024-01-15T11:57:04;9.40;;;6.70;;
8104;SDS011;4095;48.942;9.104;2024-01-15T11:59:34;9.60;;;5.83;;
8104;SDS011;4095;48.942;9.104;2024-01-15T12:02:00;8.60;;;6.53;;
8104;SDS011;4095;48.942;9.104;2024-01-15T12:04:27;9.37;;;6.00;;
8104;SDS011;4095;48.942;9.104;2024-01-15T12:06:52;11.27;;;6.83;;
8104;SDS011;4095;48.942;9.104;2024-01-15T12:09:21;9.10;;;6.13;;
8104;SDS011;4095;48.942;9.104;2024-01-15T12:11:50;7.37;;;5.70;;
8104;SDS011;4095;48.942;9.104;2024-01-15T12:14:20;7.77;;;5.97;;
8104;SDS011;4095;48.942;9.104;2024-01-15T12:16:47;9.90;;;6.33;;
8104;SDS011;4095;48.942;9.104;2024-01-15T12:19:13;6.90;;;5.33;;
8104;SDS011;4095;48.942;9.104;2024-01-15T12:21:40;7.37;;;5.80;;
8104;SDS011;4095;48.942;9.104;2024-01-15T12:24:07;7.70;;;5.60;;
8104;SDS011;4095;48.942;9.104;2024-01-15T12:26:33;9.10;;;6.03;;
8104;SDS011;4095;48.942;9.104;2024-01-15T12:29:01;8.43;;;5.70;;
8104;SDS011;4095;48.942;9.104;2024-01-15T12:31:27;7.83;;;5.23;;
8104;SDS011;4095;48.942;9.104;2024-01-15T12:33:52;8.27;;;5.57;;
8104;SDS011;4095;48.942;9.104;2024-01-15T12:36:21;8.40;;;5.30;;
8104;SDS011;4095;48.942;9.104;2024-01-15T12:38:47;7.43;;;5.20;;
8104;SDS011;4095;48.942;9.104;2024-01-15T12:41:12;6.97;;;4.93;;
8104;SDS011;4095;48.942;9.104;2024-01-15T12:43:38;8.17;;;4.93;;
8104;SDS011;4095;48.942;9.104;2024-01-15T12:46:05;8.23;;;5.33;;
8104;SDS011;4095;48.942;9.104;2024-01-15T12:48:31;7.27;;;4.43;;
8104;SDS011;4095;48.942;9.104;2024-01-15T12:50:56;7.47;;;5.13;;
8104;SDS011;4095;48.942;9.104;2024-01-15T12:53:22;9.37;;;4.70;;
8104;SDS011;4095;48.942;9.104;2024-01-15T12:55:47;6.90;;;5.00;;
8104;SDS011;4095;48.942;9.104;2024-01-15T12:58:13;7.23;;;5.13;;
8104;SDS011;4095;48.942;9.104;2024-01-15T13:00:38;7.57;;;5.47;;
8104;SDS011;4095;48.942;9.104;2024-01-15T13:03:04;8.03;;;4.93;;
8104;SDS011;4095;48.942;9.104;2024-01-15T13:05:31;6.17;;;4.37;;
8104;SDS011;4095;48.942;9.104;2024-01-15T13:07:58;8.10;;;5.43;;
8104;SDS011;4095;48.942;9.104;2024-01-15T13:10:24;8.40;;;5.97;;
8104;SDS011;4095;48.942;9.104;2024-01-15T13:12:50;8.17;;;5.77;;
8104;SDS011;4095;48.942;9.104;2024-01-15T13:15:15;6.27;;;5.00;;
8104;SDS011;4095;48.942;9.104;2024-01-15T13:17:41;7.33;;;5.53;;
8104;SDS011;4095;48.942;9.104;2024-01-15T13:20:07;7.50;;;5.87;;
8104;SDS011;4095;48.942;9.104;2024-01-15T13:22:33;7.67;;;5.83;;
8104;SDS011;4095;48.942;9.104;2024-01-15T13:24:59;8.17;;;5.87;;
8104;SDS011;4095;48.942;9.104;2024-01-15T13:27:25;8.60;;;5.87;;
8104;SDS011;4095;48.942;9.104;2024-01-15T13:29:50;9.77;;;7.03;;
8104;SDS011;4095;48.942;9.104;2024-01-15T13:32:24;9.80;;;6.53;;
8104;SDS011;4095;48.942;9.104;2024-01-15T13:34:53;10.87;;;6.27;;
8104;SDS011;4095;48.942;9.104;2024-01-15T13:37:20;9.93;;;6.13;;
8104;SDS011;4095;48.942;9.104;2024-01-15T13:39:46;12.87;;;7.53;;
8104;SDS011;4095;48.942;9.104;2024-01-15T13:42:11;9.97;;;6.60;;
8104;SDS011;4095;48.942;9.104;2024-01-15T13:44:37;10.27;;;7.03;;
8104;SDS011;4095;48.942;9.104;2024-01-15T13:47:03;8.80;;;6.47;;
8104;SDS011;4095;48.942;9.104;2024-01-15T13:49:30;10.90;;;6.97;;
8104;SDS011;4095;48.942;9.104;2024-01-15T13:51:55;15.87;;;8.33;;
8104;SDS011;4095;48.942;9.104;2024-01-15T13:54:21;11.17;;;7.90;;
8104;SDS011;4095;48.942;9.104;2024-01-15T13:56:46;10.43;;;6.97;;
8104;SDS011;4095;48.942;9.104;2024-01-15T13:59:12;9.57;;;6.37;;
8104;SDS011;4095;48.942;9.104;2024-01-15T14:01:38;10.07;;;6.93;;
8104;SDS011;4095;48.942;9.104;2024-01-15T14:04:03;8.57;;;6.90;;
8104;SDS011;4095;48.942;9.104;2024-01-15T14:06:29;9.27;;;6.97;;
8104;SDS011;4095;48.942;9.104;2024-01-15T14:08:55;10.87;;;7.03;;
8104;SDS011;4095;48.942;9.104;2024-01-15T14:11:20;10.73;;;7.57;;
8104;SDS011;4095;48.942;9.104;2024-01-15T14:13:46;9.83;;;7.63;;
8104;SDS011;4095;48.942;9.104;2024-01-15T14:16:12;11.03;;;6.70;;
8104;SDS011;4095;48.942;9.104;2024-01-15T14:18:38;12.00;;;8.67;;
8104;SDS011;4095;48.942;9.104;2024-01-15T14:21:03;10.80;;;8.03;;
8104;SDS011;4095;48.942;9.104;2024-01-15T14:23:29;10.57;;;7.83;;
8104;SDS011;4095;48.942;9.104;2024-01-15T14:25:54;10.27;;;7.87;;
8104;SDS011;4095;48.942;9.104;2024-01-15T14:28:21;9.83;;;7.70;;
8104;SDS011;4095;48.942;9.104;2024-01-15T14:30:48;9.17;;;7.60;;
8104;SDS011;4095;48.942;9.104;2024-01-15T14:33:13;10.13;;;7.23;;
8104;SDS011;4095;48.942;9.104;2024-01-15T14:35:39;9.53;;;7.50;;
8104;SDS011;4095;48.942;9.104;2024-01-15T14:38:04;9.93;;;8.03;;
8104;SDS011;4095;48.942;9.104;2024-01-15T14:40:30;9.80;;;7.13;;
8104;SDS011;4095;48.942;9.104;2024-01-15T14:42:56;11.00;;;8.10;;
8104;SDS011;4095;48.942;9.104;2024-01-15T14:45:21;11.27;;;8.67;;
8104;SDS011;4095;48.942;9.104;2024-01-15T14:47:47;9.57;;;7.53;;
8104;SDS011;4095;48.942;9.104;2024-01-15T14:50:13;11.47;;;8.73;;
8104;SDS011;4095;48.942;9.104;2024-01-15T14:52:39;10.60;;;8.03;;
8104;SDS011;4095;48.942;9.104;2024-01-15T14:55:07;9.37;;;7.43;;
8104;SDS011;4095;48.942;9.104;2024-01-15T14:57:33;11.10;;;7.80;;
8104;SDS011;4095;48.942;9.104;2024-01-15T14:59:59;10.70;;;8.03;;
8104;SDS011;4095;48.942;9.104;2024-01-15T15:02:24;9.67;;;8.10;;
8104;SDS011;4095;48.942;9.104;2024-01-15T15:04:53;9.17;;;7.87;;
8104;SDS011;4095;48.942;9.104;2024-01-15T15:07:20;11.37;;;7.93;;
8104;SDS011;4095;48.942;9.104;2024-01-15T15:09:47;13.47;;;8.60;;